createdAt,value
2018-09-20T00:00:45.298Z,98599.55
2018-09-20T00:03:14.726Z,98598.73
2018-09-20T00:05:44.217Z,98596.53
2018-09-20T00:08:13.609Z,98591.98
2018-09-20T00:10:43.028Z,98589.98
2018-09-20T00:13:12.463Z,98590.05
2018-09-20T00:15:41.862Z,98590.80
2018-09-20T00:18:12.109Z,98585.78
2018-09-20T00:20:41.536Z,98585.95
2018-09-20T00:23:10.943Z,98585.75
2018-09-20T00:25:40.369Z,98580.39
2018-09-20T00:28:09.775Z,98578.69
2018-09-20T00:30:39.194Z,98582.36
2018-09-20T00:33:08.603Z,98579.71
2018-09-20T00:35:38.055Z,98580.96
2018-09-20T00:38:07.538Z,98582.36
2018-09-20T00:40:37.964Z,98582.66
2018-09-20T00:43:07.456Z,98584.70
2018-09-20T00:45:36.918Z,98575.37
2018-09-20T00:48:06.617Z,98576.83
2018-09-20T00:50:36.054Z,98575.00
2018-09-20T00:53:05.473Z,98573.60
2018-09-20T00:55:34.922Z,98571.16
2018-09-20T00:58:04.358Z,98575.13
2018-09-20T01:00:33.849Z,98574.04
2018-09-20T01:03:03.264Z,98573.23
2018-09-20T01:05:32.720Z,98571.30
2018-09-20T01:08:02.859Z,98570.34
2018-09-20T01:10:32.264Z,98563.35
2018-09-20T01:13:01.661Z,98566.64
2018-09-20T01:15:31.055Z,98561.28
2018-09-20T01:18:00.528Z,98555.92
2018-09-20T01:20:31.111Z,98563.59
2018-09-20T01:23:00.554Z,98562.53
2018-09-20T01:25:30.077Z,98565.23
2018-09-20T01:27:59.473Z,98562.26
2018-09-20T01:30:28.889Z,98560.56
2018-09-20T01:32:58.298Z,98563.60
2018-09-20T01:35:27.718Z,98570.13
2018-09-20T01:37:57.171Z,98576.03
2018-09-20T01:40:26.581Z,98573.28
2018-09-20T01:42:56.027Z,98570.25
2018-09-20T01:45:25.394Z,98568.66
2018-09-20T01:47:54.856Z,98566.02
2018-09-20T01:50:24.327Z,98573.45
2018-09-20T01:52:53.727Z,98573.22
2018-09-20T01:55:23.180Z,98570.05
2018-09-20T01:57:52.652Z,98572.41
2018-09-20T02:00:22.131Z,98574.09
2018-09-20T02:02:51.601Z,98578.25
2018-09-20T02:05:21.032Z,98576.55
2018-09-20T02:07:50.449Z,98572.08
2018-09-20T02:10:19.944Z,98583.65
2018-09-20T02:12:49.400Z,98583.84
2018-09-20T02:15:18.771Z,98589.13
2018-09-20T02:17:48.215Z,98595.26
2018-09-20T02:20:17.632Z,98590.41
2018-09-20T02:22:47.058Z,98592.23
2018-09-20T02:25:16.496Z,98589.67
2018-09-20T02:27:45.909Z,98598.41
2018-09-20T02:30:15.974Z,98592.11
2018-09-20T02:32:45.466Z,98594.98
2018-09-20T02:35:14.902Z,98602.73
2018-09-20T02:37:44.324Z,98592.69
2018-09-20T02:40:13.731Z,98593.11
2018-09-20T02:42:43.140Z,98596.76
2018-09-20T02:45:12.623Z,98596.17
2018-09-20T02:47:42.070Z,98597.18
2018-09-20T02:50:12.438Z,98595.55
2018-09-20T02:52:41.832Z,98597.30
2018-09-20T02:55:11.260Z,98597.09
2018-09-20T02:57:40.658Z,98594.38
2018-09-20T03:00:10.180Z,98596.73
2018-09-20T03:02:39.632Z,98590.86
2018-09-20T03:05:09.073Z,98596.25
2018-09-20T03:07:38.471Z,98592.60
2018-09-20T03:10:08.826Z,98594.22
2018-09-20T03:12:38.791Z,98597.39
2018-09-20T03:15:08.270Z,98603.17
2018-09-20T03:17:37.662Z,98599.92
2018-09-20T03:20:07.733Z,98600.42
2018-09-20T03:22:37.157Z,98606.84
2018-09-20T03:25:06.666Z,98605.13
2018-09-20T03:27:36.067Z,98604.12
2018-09-20T03:30:05.632Z,98603.30
2018-09-20T03:32:35.605Z,98601.77
2018-09-20T03:35:05.045Z,98605.63
2018-09-20T03:37:34.470Z,98611.41
2018-09-20T03:40:03.880Z,98610.50
2018-09-20T03:42:33.314Z,98608.69
2018-09-20T03:45:03.711Z,98607.05
2018-09-20T03:47:33.117Z,98608.09
2018-09-20T03:50:03.501Z,98610.11
2018-09-20T03:52:33.853Z,98604.33
2018-09-20T03:55:03.306Z,98610.33
2018-09-20T03:57:32.738Z,98601.48
2018-09-20T04:00:02.246Z,98607.08
2018-09-20T04:02:31.686Z,98609.72
2018-09-20T04:05:01.128Z,98603.53
2018-09-20T04:07:30.558Z,98599.27
2018-09-20T04:09:59.986Z,98602.73
2018-09-20T04:12:29.448Z,98598.68
2018-09-20T04:14:58.869Z,98605.97
2018-09-20T04:17:28.296Z,98599.51
2018-09-20T04:19:57.733Z,98596.25
2018-09-20T04:22:28.260Z,98593.30
2018-09-20T04:24:57.738Z,98591.36
2018-09-20T04:27:27.207Z,98599.20
2018-09-20T04:29:56.662Z,98589.84
2018-09-20T04:32:26.999Z,98594.12
2018-09-20T04:34:56.444Z,98594.62
2018-09-20T04:37:25.948Z,98592.80
2018-09-20T04:39:55.476Z,98592.47
2018-09-20T04:42:24.908Z,98590.97
2018-09-20T04:44:54.362Z,98591.66
2018-09-20T04:47:23.963Z,98591.16
2018-09-20T04:49:53.425Z,98596.44
2018-09-20T04:52:22.850Z,98597.53
2018-09-20T04:54:52.291Z,98605.66
2018-09-20T04:57:22.496Z,98595.71
2018-09-20T04:59:51.971Z,98594.80
2018-09-20T05:02:21.404Z,98595.30
2018-09-20T05:04:50.812Z,98594.58
2018-09-20T05:07:21.587Z,98599.56
2018-09-20T05:09:51.100Z,98598.33
2018-09-20T05:12:21.362Z,98599.33
2018-09-20T05:14:50.792Z,98603.28
2018-09-20T05:17:20.249Z,98602.97
2018-09-20T05:19:49.714Z,98608.55
2018-09-20T05:22:19.187Z,98604.59
2018-09-20T05:24:48.658Z,98607.13
2018-09-20T05:27:18.175Z,98608.44
2018-09-20T05:29:47.602Z,98609.63
2018-09-20T05:32:17.063Z,98602.86
2018-09-20T05:34:47.170Z,98614.70
2018-09-20T05:37:16.588Z,98613.97
2018-09-20T05:39:46.103Z,98616.73
2018-09-20T05:42:15.496Z,98616.02
2018-09-20T05:44:45.001Z,98609.13
2018-09-20T05:47:14.472Z,98616.52
2018-09-20T05:49:43.906Z,98616.32
2018-09-20T05:52:13.874Z,98621.17
2018-09-20T05:54:43.299Z,98623.98
2018-09-20T05:57:12.783Z,98613.06
2018-09-20T05:59:43.867Z,98615.91
2018-09-20T06:02:13.474Z,98623.67
2018-09-20T06:04:42.892Z,98620.86
2018-09-20T06:07:12.303Z,98630.88
2018-09-20T06:09:41.750Z,98627.44
2018-09-20T06:12:11.217Z,98632.88
2018-09-20T06:14:40.733Z,98626.39
2018-09-20T06:17:10.134Z,98633.18
2018-09-20T06:19:39.624Z,98628.42
2018-09-20T06:22:09.744Z,98631.47
2018-09-20T06:24:39.201Z,98625.41
2018-09-20T06:27:08.913Z,98617.92
2018-09-20T06:29:38.305Z,98627.64
2018-09-20T06:32:09.000Z,98632.40
2018-09-20T06:34:38.445Z,98625.23
2018-09-20T06:37:08.380Z,98628.05
2018-09-20T06:39:38.355Z,98627.47
2018-09-20T06:42:07.872Z,98629.37
2018-09-20T06:44:37.337Z,98628.70
2018-09-20T06:47:06.823Z,98620.48
2018-09-20T06:49:36.217Z,98626.88
2018-09-20T06:52:05.648Z,98631.34
2018-09-20T06:54:35.059Z,98623.54
2018-09-20T06:57:04.556Z,98621.13
2018-09-20T06:59:33.960Z,98620.41
2018-09-20T07:02:03.467Z,98620.55
2018-09-20T07:04:32.910Z,98621.86
2018-09-20T07:07:02.368Z,98617.50
2018-09-20T07:09:31.833Z,98618.41
2018-09-20T07:12:01.276Z,98621.45
2018-09-20T07:14:30.735Z,98621.05
2018-09-20T07:17:00.253Z,98621.56
2018-09-20T07:19:29.682Z,98617.83
2018-09-20T07:21:59.438Z,98624.60
2018-09-20T07:24:28.910Z,98618.23
2018-09-20T07:26:58.336Z,98622.88
2018-09-20T07:29:27.787Z,98617.31
2018-09-20T07:31:57.294Z,98615.40
2018-09-20T07:34:27.375Z,98617.53
2018-09-20T07:36:56.820Z,98617.96
2018-09-20T07:39:26.293Z,98612.05
2018-09-20T07:41:55.748Z,98611.54
2018-09-20T07:44:25.194Z,98610.94
2018-09-20T07:46:54.683Z,98609.60
2018-09-20T07:49:24.141Z,98603.80
2018-09-20T07:51:53.533Z,98601.66
2018-09-20T07:54:23.015Z,98601.94
2018-09-20T07:56:52.527Z,98607.50
2018-09-20T07:59:21.910Z,98605.34
2018-09-20T08:01:52.016Z,98605.94
2018-09-20T08:04:21.564Z,98601.45
2018-09-20T08:06:50.993Z,98598.27
2018-09-20T08:09:20.451Z,98608.88
2018-09-20T08:11:49.873Z,98604.38
2018-09-20T08:14:19.355Z,98610.36
2018-09-20T08:16:48.804Z,98606.94
2018-09-20T08:19:18.272Z,98608.09
2018-09-20T08:21:47.727Z,98603.77
2018-09-20T08:24:17.196Z,98607.51
2018-09-20T08:26:46.599Z,98597.41
2018-09-20T08:29:16.040Z,98606.72
2018-09-20T08:31:45.473Z,98602.19
2018-09-20T08:34:15.037Z,98606.67
2018-09-20T08:36:44.542Z,98601.68
2018-09-20T08:39:13.999Z,98599.19
2018-09-20T08:41:43.421Z,98602.88
2018-09-20T08:44:12.962Z,98599.11
2018-09-20T08:46:42.404Z,98601.98
2018-09-20T08:49:11.864Z,98603.22
2018-09-20T08:51:41.245Z,98598.59
2018-09-20T08:54:11.145Z,98603.56
2018-09-20T08:56:40.636Z,98599.62
2018-09-20T08:59:10.009Z,98602.02
2018-09-20T09:01:39.408Z,98596.13
2018-09-20T09:04:08.912Z,98593.53
2018-09-20T09:06:38.310Z,98592.14
2018-09-20T09:09:10.392Z,98596.28
2018-09-20T09:11:40.253Z,98588.47
2018-09-20T09:14:10.216Z,98586.88
2018-09-20T09:16:39.681Z,98592.12
2018-09-20T09:19:09.100Z,98580.69
2018-09-20T09:21:38.511Z,98580.47
2018-09-20T09:24:08.003Z,98572.83
2018-09-20T09:26:37.377Z,98580.95
2018-09-20T09:29:06.831Z,98567.98
2018-09-20T09:31:36.793Z,98570.16
2018-09-20T09:34:06.281Z,98570.94
2018-09-20T09:36:35.720Z,98568.35
2018-09-20T09:39:08.348Z,98564.63
2018-09-20T09:41:37.815Z,98563.09
2018-09-20T09:44:07.413Z,98560.59
2018-09-20T09:46:36.863Z,98559.34
2018-09-20T09:49:06.518Z,98553.34
2018-09-20T09:51:35.961Z,98557.84
2018-09-20T09:54:05.512Z,98558.65
2018-09-20T09:56:34.959Z,98551.23
2018-09-20T09:59:05.470Z,98561.68
2018-09-20T10:01:35.434Z,98555.41
2018-09-20T10:04:04.959Z,98553.33
2018-09-20T10:06:35.362Z,98549.42
2018-09-20T10:09:07.257Z,98548.13
2018-09-20T10:11:36.722Z,98552.25
2018-09-20T10:14:06.206Z,98558.67
2018-09-20T10:16:35.798Z,98547.75
2018-09-20T10:19:06.037Z,98538.77
2018-09-20T10:21:35.466Z,98533.29
2018-09-20T10:24:04.994Z,98531.76
2018-09-20T10:26:34.448Z,98535.30
2018-09-20T10:29:03.949Z,98523.91
2018-09-20T10:31:33.465Z,98531.36
2018-09-20T10:34:02.899Z,98527.14
2018-09-20T10:36:32.307Z,98531.55
2018-09-20T10:39:01.811Z,98532.94
2018-09-20T10:41:31.193Z,98526.57
2018-09-20T10:44:00.641Z,98525.04
2018-09-20T10:46:30.133Z,98524.84
2018-09-20T10:48:59.563Z,98522.23
2018-09-20T10:51:29.729Z,98520.83
2018-09-20T10:53:59.192Z,98521.33
2018-09-20T10:56:28.708Z,98511.88
2018-09-20T10:58:58.171Z,98512.22
2018-09-20T11:01:27.660Z,98521.33
2018-09-20T11:03:57.174Z,98513.36
2018-09-20T11:06:26.679Z,98502.95
2018-09-20T11:08:56.111Z,98498.95
2018-09-20T11:11:26.915Z,98501.72
2018-09-20T11:13:56.368Z,98489.34
2018-09-20T11:16:25.776Z,98495.73
2018-09-20T11:18:55.216Z,98485.36
2018-09-20T11:21:24.691Z,98483.80
2018-09-20T11:23:54.188Z,98482.05
2018-09-20T11:26:23.665Z,98478.38
2018-09-20T11:28:53.322Z,98474.92
2018-09-20T11:31:22.726Z,98476.54
2018-09-20T11:33:52.136Z,98474.77
2018-09-20T11:36:21.962Z,98472.96
2018-09-20T11:38:51.392Z,98474.13
2018-09-20T11:41:20.860Z,98471.55
2018-09-20T11:43:50.336Z,98470.45
2018-09-20T11:46:19.790Z,98468.63
2018-09-20T11:48:49.242Z,98449.49
2018-09-20T11:51:18.722Z,98451.64
2018-09-20T11:53:48.181Z,98449.27
2018-09-20T11:56:17.602Z,98451.47
2018-09-20T11:58:47.073Z,98452.30
2018-09-20T12:01:17.373Z,98444.57
2018-09-20T12:03:46.810Z,98438.47
2018-09-20T12:06:16.267Z,98435.06
2018-09-20T12:08:45.673Z,98428.12
2018-09-20T12:11:15.125Z,98431.60
2018-09-20T12:13:46.114Z,98418.02
2018-09-20T12:16:15.562Z,98414.27
2018-09-20T12:18:45.099Z,98411.65
2018-09-20T12:21:14.534Z,98397.03
2018-09-20T12:23:43.994Z,98398.41
2018-09-20T12:26:13.451Z,98394.17
2018-09-20T12:28:42.902Z,98394.45
2018-09-20T12:31:15.295Z,98393.13
2018-09-20T12:33:44.736Z,98392.87
2018-09-20T12:36:14.155Z,98391.83
2018-09-20T12:38:43.706Z,98402.38
2018-09-20T12:41:13.116Z,98382.87
2018-09-20T12:43:42.614Z,98387.69
2018-09-20T12:46:12.016Z,98384.77
2018-09-20T12:48:41.590Z,98379.95
2018-09-20T12:51:12.086Z,98374.91
2018-09-20T12:53:41.665Z,98377.58
2018-09-20T12:56:11.098Z,98370.66
2018-09-20T12:58:46.649Z,98372.54
2018-09-20T13:01:16.171Z,98372.79
2018-09-20T13:03:45.645Z,98370.66
2018-09-20T13:06:15.384Z,98364.01
2018-09-20T13:08:44.805Z,98365.34
2018-09-20T13:11:14.296Z,98357.84
2018-09-20T13:13:43.762Z,98353.33
2018-09-20T13:16:13.230Z,98348.50
2018-09-20T13:18:42.802Z,98347.21
2018-09-20T13:21:12.633Z,98344.28
2018-09-20T13:23:42.206Z,98338.67
2018-09-20T13:26:11.693Z,98343.46
2018-09-20T13:28:41.180Z,98339.19
2018-09-20T13:31:10.608Z,98341.86
2018-09-20T13:33:40.018Z,98339.95
2018-09-20T13:36:09.463Z,98334.63
2018-09-20T13:38:38.935Z,98343.98
2018-09-20T13:41:08.426Z,98351.43
2018-09-20T13:43:38.064Z,98343.41
2018-09-20T13:46:07.688Z,98337.78
2018-09-20T13:48:37.281Z,98330.82
2018-09-20T13:51:06.807Z,98329.11
2018-09-20T13:53:36.209Z,98321.40
2018-09-20T13:56:06.344Z,98322.28
2018-09-20T13:58:36.045Z,98311.07
2018-09-20T14:01:06.121Z,98307.25
2018-09-20T14:03:35.618Z,98311.55
2018-09-20T14:06:04.997Z,98310.77
2018-09-20T14:08:34.500Z,98305.77
2018-09-20T14:11:04.932Z,98310.30
2018-09-20T14:13:34.396Z,98300.91
2018-09-20T14:16:03.864Z,98300.38
2018-09-20T14:18:33.300Z,98294.41
2018-09-20T14:21:02.733Z,98294.65
2018-09-20T14:23:32.166Z,98288.72
2018-09-20T14:26:01.664Z,98292.67
2018-09-20T14:28:31.169Z,98282.51
2018-09-20T14:31:01.700Z,98276.58
2018-09-20T14:33:31.164Z,98280.59
2018-09-20T14:36:00.633Z,98283.25
2018-09-20T14:38:30.296Z,98272.52
2018-09-20T14:40:59.778Z,98263.36
2018-09-20T14:43:29.237Z,98266.31
2018-09-20T14:45:58.691Z,98265.50
2018-09-20T14:48:28.137Z,98268.45
2018-09-20T14:50:58.450Z,98258.98
2018-09-20T14:53:27.904Z,98248.56
2018-09-20T14:55:57.443Z,98246.34
2018-09-20T14:58:26.902Z,98242.01
2018-09-20T15:00:56.336Z,98241.39
2018-09-20T15:03:26.363Z,98242.91
2018-09-20T15:05:55.823Z,98237.55
2018-09-20T15:08:25.215Z,98238.88
2018-09-20T15:10:54.672Z,98240.17
2018-09-20T15:13:24.128Z,98233.50
2018-09-20T15:15:53.620Z,98232.16
2018-09-20T15:18:23.109Z,98234.81
2018-09-20T15:20:53.597Z,98230.24
2018-09-20T15:23:23.093Z,98225.64
2018-09-20T15:25:52.600Z,98227.73
2018-09-20T15:28:22.113Z,98221.03
2018-09-20T15:30:52.296Z,98218.30
2018-09-20T15:33:21.717Z,98218.79
2018-09-20T15:35:51.171Z,98215.08
2018-09-20T15:38:20.632Z,98204.02
2018-09-20T15:40:50.270Z,98206.17
2018-09-20T15:43:20.336Z,98204.52
2018-09-20T15:45:50.953Z,98203.44
2018-09-20T15:48:20.515Z,98207.51
2018-09-20T15:50:50.008Z,98203.58
2018-09-20T15:53:19.496Z,98196.28
2018-09-20T15:55:49.018Z,98192.75
2018-09-20T15:58:18.517Z,98186.39
2018-09-20T16:00:47.949Z,98190.70
2018-09-20T16:03:17.548Z,98186.97
2018-09-20T16:05:47.042Z,98187.85
2018-09-20T16:08:16.483Z,98181.95
2018-09-20T16:10:45.888Z,98181.77
2018-09-20T16:13:15.360Z,98188.52
2018-09-20T16:15:44.843Z,98183.20
2018-09-20T16:18:14.268Z,98184.94
2018-09-20T16:20:44.285Z,98179.65
2018-09-20T16:23:13.731Z,98178.43
2018-09-20T16:25:43.172Z,98173.11
2018-09-20T16:28:27.833Z,98171.84
2018-09-20T16:31:23.911Z,98167.09
2018-09-20T16:36:22.979Z,98162.92
2018-09-20T16:39:05.332Z,98157.47
2018-09-20T16:41:39.642Z,98160.52
2018-09-20T16:44:08.780Z,98159.06
2018-09-20T16:46:38.215Z,98155.08
2018-09-20T16:49:07.695Z,98158.62
2018-09-20T16:51:37.145Z,98153.08
2018-09-20T16:54:06.649Z,98158.51
2018-09-20T16:56:36.123Z,98162.63
2018-09-20T16:59:05.644Z,98149.33
2018-09-20T17:01:35.110Z,98153.11
2018-09-20T17:04:04.577Z,98157.99
2018-09-20T17:06:34.803Z,98155.07
2018-09-20T17:09:05.545Z,98152.45
2018-09-20T17:11:35.018Z,98157.83
2018-09-20T17:14:04.566Z,98156.78
2018-09-20T17:16:35.162Z,98154.42
2018-09-20T17:19:04.590Z,98153.12
2018-09-20T17:21:34.045Z,98157.98
2018-09-20T17:24:03.455Z,98157.17
2018-09-20T17:26:32.941Z,98155.03
2018-09-20T17:29:02.459Z,98153.45
2018-09-20T17:31:32.045Z,98160.67
2018-09-20T17:34:01.462Z,98150.28
2018-09-20T17:36:31.510Z,98147.33
2018-09-20T17:39:02.160Z,98150.56
2018-09-20T17:41:34.200Z,98142.02
2018-09-20T17:44:05.663Z,98139.89
2018-09-20T17:46:35.125Z,98136.66
2018-09-20T17:49:04.679Z,98136.90
2018-09-20T17:51:34.731Z,98133.97
2018-09-20T17:54:04.541Z,98136.38
2018-09-20T17:56:35.049Z,98135.00
2018-09-20T17:59:04.844Z,98139.27
2018-09-20T18:01:34.298Z,98135.52
2018-09-20T18:04:03.749Z,98135.47
2018-09-20T18:06:33.219Z,98130.33
2018-09-20T18:09:02.742Z,98131.91
2018-09-20T18:11:32.200Z,98132.44
2018-09-20T18:14:01.670Z,98128.64
2018-09-20T18:16:31.091Z,98125.66
2018-09-20T18:19:00.517Z,98125.65
2018-09-20T18:21:30.011Z,98120.52
2018-09-20T18:23:59.566Z,98119.14
2018-09-20T18:26:30.008Z,98119.63
2018-09-20T18:28:59.458Z,98123.56
2018-09-20T18:31:28.939Z,98121.89
2018-09-20T18:33:58.527Z,98119.44
2018-09-20T18:36:28.030Z,98115.39
2018-09-20T18:38:57.483Z,98119.04
2018-09-20T18:41:27.001Z,98118.52
2018-09-20T18:43:56.528Z,98118.73
2018-09-20T18:46:26.084Z,98113.63
2018-09-20T18:48:55.657Z,98117.03
2018-09-20T18:51:25.125Z,98114.30
2018-09-20T18:53:54.679Z,98119.84
2018-09-20T18:56:24.660Z,98119.22
2018-09-20T18:58:54.169Z,98117.58
2018-09-20T19:01:23.626Z,98106.33
2018-09-20T19:03:53.044Z,98105.72
2018-09-20T19:06:23.293Z,98104.59
2018-09-20T19:08:52.981Z,98106.58
2018-09-20T19:11:22.505Z,98112.59
2018-09-20T19:13:51.966Z,98112.00
2018-09-20T19:16:21.563Z,98107.48
2018-09-20T19:18:51.131Z,98102.05
2018-09-20T19:21:59.804Z,98104.95
2018-09-20T19:24:29.386Z,98101.98
2018-09-20T19:26:59.100Z,98104.02
2018-09-20T19:29:28.609Z,98100.98
2018-09-20T19:31:58.235Z,98099.55
2018-09-20T19:34:27.734Z,98094.41
2018-09-20T19:36:57.243Z,98097.00
2018-09-20T19:39:26.728Z,98096.17
2018-09-20T19:41:56.175Z,98092.86
2018-09-20T19:44:25.616Z,98096.50
2018-09-20T19:46:55.549Z,98095.09
2018-09-20T19:49:25.075Z,98092.38
2018-09-20T19:51:54.540Z,98093.89
2018-09-20T19:54:23.925Z,98088.69
2018-09-20T19:56:54.555Z,98085.41
2018-09-20T19:59:24.037Z,98080.84
2018-09-20T20:01:53.475Z,98085.22
2018-09-20T20:04:22.945Z,98091.05
2018-09-20T20:06:52.457Z,98087.23
2018-09-20T20:09:21.844Z,98088.53
2018-09-20T20:11:51.339Z,98086.36
2018-09-20T20:14:20.904Z,98080.77
2018-09-20T20:16:50.371Z,98082.81
2018-09-20T20:19:19.907Z,98082.48
2018-09-20T20:21:50.463Z,98078.96
2018-09-20T20:24:19.929Z,98076.98
2018-09-20T20:26:49.464Z,98071.88
2018-09-20T20:29:18.960Z,98073.62
2018-09-20T20:31:48.409Z,98069.55
2018-09-20T20:34:19.080Z,98067.38
2018-09-20T20:36:48.532Z,98063.63
2018-09-20T20:39:17.962Z,98064.14
2018-09-20T20:41:47.327Z,98061.71
2018-09-20T20:44:16.793Z,98061.38
2018-09-20T20:46:46.339Z,98061.25
2018-09-20T20:49:15.760Z,98056.13
2018-09-20T20:51:45.267Z,98054.19
2018-09-20T20:54:14.677Z,98053.05
2018-09-20T20:56:44.217Z,98051.91
2018-09-20T20:59:13.629Z,98043.64
2018-09-20T21:01:43.066Z,98042.72
2018-09-20T21:04:12.513Z,98042.46
2018-09-20T21:06:42.904Z,98038.75
2018-09-20T21:09:12.349Z,98035.51
2018-09-20T21:11:41.950Z,98032.80
2018-09-20T21:14:11.533Z,98029.77
2018-09-20T21:16:40.973Z,98028.48
2018-09-20T21:19:10.468Z,98023.95
2018-09-20T21:21:40.052Z,98022.97
2018-09-20T21:24:09.923Z,98021.31
2018-09-20T21:26:39.305Z,98021.75
2018-09-20T21:29:08.764Z,98014.50
2018-09-20T21:31:38.216Z,98015.23
2018-09-20T21:34:07.641Z,98016.52
2018-09-20T21:36:37.207Z,98002.35
2018-09-20T21:39:10.750Z,98009.48
2018-09-20T21:41:40.851Z,98009.41
2018-09-20T21:44:11.052Z,97995.84
2018-09-20T21:46:40.534Z,97998.63
2018-09-20T21:49:11.248Z,98001.01
2018-09-20T21:51:41.223Z,97993.25
2018-09-20T21:54:10.660Z,97996.16
2018-09-20T21:56:40.143Z,97987.84
2018-09-20T21:59:10.073Z,97986.98
2018-09-20T22:01:44.601Z,97973.47
2018-09-20T22:04:14.023Z,97982.47
2018-09-20T22:06:43.389Z,97972.91
2018-09-20T22:09:13.284Z,97975.00
2018-09-20T22:11:42.701Z,97974.70
2018-09-20T22:14:12.575Z,97969.05
2018-09-20T22:16:41.982Z,97966.63
2018-09-20T22:19:11.432Z,97961.25
2018-09-20T22:21:40.882Z,97964.53
2018-09-20T22:24:10.400Z,97957.87
2018-09-20T22:26:39.884Z,97955.29
2018-09-20T22:29:09.367Z,97950.89
2018-09-20T22:31:38.810Z,97949.66
2018-09-20T22:34:08.322Z,97948.72
2018-09-20T22:36:37.830Z,97939.09
2018-09-20T22:39:10.648Z,97943.05
2018-09-20T22:41:40.128Z,97940.88
2018-09-20T22:44:11.066Z,97938.11
2018-09-20T22:46:40.551Z,97938.78
2018-09-20T22:49:10.010Z,97935.59
2018-09-20T22:51:39.427Z,97937.63
2018-09-20T22:54:08.970Z,97931.48
2018-09-20T22:56:38.408Z,97931.19
2018-09-20T22:59:07.876Z,97925.52
2018-09-20T23:01:37.319Z,97927.17
2018-09-20T23:04:06.904Z,97924.70
2018-09-20T23:06:36.299Z,97917.28
2018-09-20T23:09:09.031Z,97914.30
2018-09-20T23:11:38.841Z,97913.05
2018-09-20T23:14:08.666Z,97918.00
2018-09-20T23:16:38.065Z,97907.94
2018-09-20T23:19:07.527Z,97909.02
2018-09-20T23:21:36.928Z,97909.48
2018-09-20T23:24:06.344Z,97905.42
2018-09-20T23:26:36.688Z,97904.53
2018-09-20T23:29:06.116Z,97900.22
2018-09-20T23:31:35.650Z,97899.21
2018-09-20T23:34:05.161Z,97895.52
2018-09-20T23:36:35.171Z,97894.28
2018-09-20T23:39:06.523Z,97892.61
2018-09-20T23:41:35.982Z,97886.26
2018-09-20T23:44:05.566Z,97886.77
2018-09-20T23:46:35.045Z,97892.86
2018-09-20T23:49:04.538Z,97887.28
2018-09-20T23:51:34.044Z,97884.80
2018-09-20T23:54:03.502Z,97883.83
2018-09-20T23:56:32.859Z,97882.22
2018-09-20T23:59:02.299Z,97878.72
